createdAt,value
2023-01-01T00:01:26.206Z,9.93
2023-01-01T00:03:54.680Z,8.75
2023-01-01T00:06:21.302Z,8.45
2023-01-01T00:08:48.500Z,8.40
2023-01-01T00:11:15.364Z,7.68
2023-01-01T00:13:44.332Z,7.72
2023-01-01T00:16:13.317Z,7.43
2023-01-01T00:18:41.004Z,6.38
2023-01-01T00:21:11.914Z,6.30
2023-01-01T00:23:38.970Z,6.03
2023-01-01T00:26:17.106Z,6.30
2023-01-01T00:28:44.788Z,5.80
2023-01-01T00:31:21.868Z,5.45
2023-01-01T00:33:53.559Z,5.22
2023-01-01T00:36:21.237Z,5.25
2023-01-01T00:38:48.130Z,5.25
2023-01-01T00:41:16.405Z,5.63
2023-01-01T00:43:43.221Z,4.82
2023-01-01T00:46:09.909Z,5.40
2023-01-01T00:48:36.708Z,5.47
2023-01-01T00:51:03.603Z,5.03
2023-01-01T00:53:30.129Z,4.80
2023-01-01T00:55:56.717Z,4.18
2023-01-01T00:58:24.732Z,4.82
2023-01-01T01:00:53.015Z,4.47
2023-01-01T01:03:28.513Z,4.47
2023-01-01T01:06:03.840Z,4.45
2023-01-01T01:08:32.787Z,4.25
2023-01-01T01:11:09.511Z,3.92
2023-01-01T01:13:37.013Z,4.10
2023-01-01T01:16:18.067Z,4.20
2023-01-01T01:18:45.231Z,4.40
2023-01-01T01:21:15.971Z,3.92
2023-01-01T01:23:42.479Z,4.53
2023-01-01T01:26:14.832Z,4.82
2023-01-01T01:28:48.875Z,4.18
2023-01-01T01:31:16.567Z,4.15
2023-01-01T01:33:43.876Z,4.43
2023-01-01T01:36:10.921Z,4.03
2023-01-01T01:38:37.374Z,4.25
2023-01-01T01:41:04.528Z,4.07
2023-01-01T01:43:30.810Z,3.97
2023-01-01T01:46:01.521Z,4.28
2023-01-01T01:48:28.592Z,3.78
2023-01-01T01:50:56.507Z,4.32
2023-01-01T01:53:28.884Z,4.15
2023-01-01T01:55:59.823Z,4.65
2023-01-01T01:58:28.417Z,4.32
2023-01-01T02:00:55.576Z,4.55
2023-01-01T02:03:31.487Z,4.68
2023-01-01T02:05:58.949Z,4.35
2023-01-01T02:08:25.825Z,4.53
2023-01-01T02:10:52.288Z,4.18
2023-01-01T02:13:19.001Z,4.30
2023-01-01T02:15:51.325Z,4.22
2023-01-01T02:18:25.722Z,4.72
2023-01-01T02:23:46.060Z,4.50
2023-01-01T02:26:45.623Z,4.00
2023-01-01T02:29:20.476Z,4.25
2023-01-01T02:32:03.127Z,4.25
2023-01-01T02:34:35.070Z,4.22
2023-01-01T02:37:05.292Z,3.80
2023-01-01T02:39:34.686Z,4.53
2023-01-01T02:42:05.213Z,4.60
2023-01-01T02:44:36.545Z,4.68
2023-01-01T02:47:11.232Z,4.72
2023-01-01T02:49:44.911Z,4.50
2023-01-01T02:52:36.473Z,4.72
2023-01-01T02:55:12.136Z,4.35
2023-01-01T02:57:45.971Z,4.57
2023-01-01T03:00:21.674Z,4.38
2023-01-01T03:03:07.628Z,4.70
2023-01-01T03:05:59.628Z,4.45
2023-01-01T03:08:33.564Z,4.95
2023-01-01T03:11:07.505Z,4.22
2023-01-01T03:13:58.727Z,4.47
2023-01-01T03:16:27.843Z,4.00
2023-01-01T03:19:15.276Z,4.10
2023-01-01T03:21:48.810Z,4.38
2023-01-01T03:24:34.950Z,4.57
2023-01-01T03:27:08.115Z,4.45
2023-01-01T03:29:38.363Z,4.45
2023-01-01T03:32:08.623Z,4.18
2023-01-01T03:34:40.464Z,4.65
2023-01-01T03:37:11.393Z,4.18
2023-01-01T03:39:50.396Z,4.70
2023-01-01T03:42:39.477Z,4.40
2023-01-01T03:45:11.878Z,4.50
2023-01-01T03:47:38.519Z,5.03
2023-01-01T03:50:05.969Z,4.43
2023-01-01T03:52:44.737Z,4.63
2023-01-01T03:55:23.123Z,5.28
2023-01-01T03:58:11.877Z,5.30
2023-01-01T04:00:46.697Z,5.43
2023-01-01T04:03:22.323Z,4.60
2023-01-01T04:05:52.015Z,4.40
2023-01-01T04:08:21.076Z,4.43
2023-01-01T04:10:52.212Z,4.45
2023-01-01T04:13:18.528Z,4.95
2023-01-01T04:15:44.897Z,5.18
2023-01-01T04:18:11.461Z,5.07
2023-01-01T04:20:37.851Z,5.10
2023-01-01T04:23:04.350Z,5.20
2023-01-01T04:25:30.994Z,5.80
2023-01-01T04:28:03.297Z,5.15
2023-01-01T04:30:30.282Z,5.38
2023-01-01T04:32:56.713Z,4.88
2023-01-01T04:35:23.106Z,5.03
2023-01-01T04:37:49.444Z,5.50
2023-01-01T04:40:16.030Z,5.13
2023-01-01T04:42:43.385Z,5.25
2023-01-01T04:45:12.319Z,5.30
2023-01-01T04:47:38.859Z,5.28
2023-01-01T04:50:05.843Z,5.90
2023-01-01T04:52:32.208Z,5.93
2023-01-01T04:54:58.565Z,5.55
2023-01-01T04:57:24.903Z,6.53
2023-01-01T04:59:51.260Z,6.00
2023-01-01T05:02:17.737Z,6.78
2023-01-01T05:04:44.329Z,6.43
2023-01-01T05:07:10.646Z,5.85
2023-01-01T05:09:37.189Z,5.35
2023-01-01T05:12:03.610Z,5.80
2023-01-01T05:14:29.931Z,5.78
2023-01-01T05:16:56.347Z,5.95
2023-01-01T05:19:22.732Z,5.55
2023-01-01T05:21:49.107Z,6.60
2023-01-01T05:24:15.787Z,5.47
2023-01-01T05:26:44.335Z,5.40
2023-01-01T05:29:16.444Z,6.13
2023-01-01T05:31:44.519Z,6.18
2023-01-01T05:34:10.949Z,7.18
2023-01-01T05:36:41.156Z,6.80
2023-01-01T05:39:12.590Z,7.22
2023-01-01T05:41:40.109Z,6.22
2023-01-01T05:44:07.114Z,6.63
2023-01-01T05:46:33.626Z,6.35
2023-01-01T05:49:00.493Z,8.38
2023-01-01T05:51:29.126Z,7.63
2023-01-01T05:53:56.250Z,7.30
2023-01-01T05:56:23.492Z,8.40
2023-01-01T05:58:49.914Z,8.15
2023-01-01T06:01:19.832Z,8.65
2023-01-01T06:03:48.781Z,9.00
2023-01-01T06:06:18.145Z,9.48
2023-01-01T06:08:53.157Z,8.35
2023-01-01T06:11:20.286Z,10.02
2023-01-01T06:13:47.094Z,10.02
2023-01-01T06:16:14.171Z,10.07
2023-01-01T06:18:40.772Z,9.07
2023-01-01T06:21:13.667Z,9.70
2023-01-01T06:23:40.186Z,9.23
2023-01-01T06:26:18.116Z,8.45
2023-01-01T06:28:45.563Z,8.40
2023-01-01T06:31:14.115Z,8.90
2023-01-01T06:33:41.227Z,9.38
2023-01-01T06:36:10.112Z,8.55
2023-01-01T06:38:39.286Z,9.23
2023-01-01T06:41:08.041Z,8.48
2023-01-01T06:43:35.386Z,8.30
2023-01-01T06:46:20.070Z,8.73
2023-01-01T06:51:25.240Z,7.70
2023-01-01T06:53:52.255Z,8.20
2023-01-01T06:56:19.835Z,7.07
2023-01-01T06:58:46.184Z,7.63
2023-01-01T07:01:15.779Z,7.30
2023-01-01T07:03:43.413Z,7.30
2023-01-01T07:06:10.721Z,7.35
2023-01-01T07:08:37.825Z,7.68
2023-01-01T07:11:04.319Z,7.60
2023-01-01T07:13:31.305Z,7.35
2023-01-01T07:15:57.898Z,6.65
2023-01-01T07:18:24.890Z,7.30
2023-01-01T07:20:57.347Z,7.90
2023-01-01T07:23:24.692Z,8.23
2023-01-01T07:25:52.480Z,9.93
2023-01-01T07:28:19.653Z,10.52
2023-01-01T07:30:46.259Z,10.73
2023-01-01T07:33:15.050Z,11.95
2023-01-01T07:35:41.898Z,13.43
2023-01-01T07:38:08.210Z,10.57
2023-01-01T07:40:34.574Z,11.93
2023-01-01T07:43:00.921Z,11.77
2023-01-01T07:45:27.536Z,10.77
2023-01-01T07:47:55.882Z,12.75
2023-01-01T07:50:24.161Z,11.25
2023-01-01T07:52:50.723Z,9.93
2023-01-01T07:55:18.524Z,10.57
2023-01-01T07:57:45.880Z,10.50
2023-01-01T08:00:16.290Z,10.43
2023-01-01T08:02:42.811Z,10.07
2023-01-01T08:05:09.984Z,9.82
2023-01-01T08:07:36.539Z,9.38
2023-01-01T08:10:04.854Z,9.50
2023-01-01T08:12:31.205Z,9.38
2023-01-01T08:14:57.577Z,8.48
2023-01-01T08:17:23.891Z,8.82
2023-01-01T08:19:51.749Z,9.88
2023-01-01T08:22:18.088Z,9.10
2023-01-01T08:24:44.434Z,9.85
2023-01-01T08:27:14.822Z,9.23
2023-01-01T08:29:42.025Z,9.95
2023-01-01T08:32:08.873Z,9.90
2023-01-01T08:34:35.310Z,9.50
2023-01-01T08:37:01.767Z,11.25
2023-01-01T08:39:28.235Z,10.27
2023-01-01T08:41:54.593Z,9.93
2023-01-01T08:44:20.950Z,9.52
2023-01-01T08:46:47.453Z,9.25
2023-01-01T08:49:13.804Z,9.73
2023-01-01T08:51:40.854Z,9.52
2023-01-01T08:54:07.431Z,9.82
2023-01-01T08:56:33.854Z,9.45
2023-01-01T08:59:04.376Z,9.40
2023-01-01T09:01:31.172Z,9.90
2023-01-01T09:03:57.573Z,9.88
2023-01-01T09:06:23.910Z,9.23
2023-01-01T09:08:50.297Z,9.77
2023-01-01T09:11:27.812Z,9.73
2023-01-01T09:13:54.938Z,8.98
2023-01-01T09:16:22.583Z,8.80
2023-01-01T09:18:49.360Z,8.02
2023-01-01T09:21:16.012Z,8.20
2023-01-01T09:23:42.581Z,8.45
2023-01-01T09:26:10.154Z,8.93
2023-01-01T09:28:37.305Z,8.65
2023-01-01T09:31:06.274Z,9.27
2023-01-01T09:33:35.773Z,10.63
2023-01-01T09:36:18.853Z,10.63
2023-01-01T09:38:52.240Z,10.10
2023-01-01T09:41:30.995Z,10.13
2023-01-01T09:44:00.570Z,11.52
2023-01-01T09:46:31.653Z,10.80
2023-01-01T09:49:03.424Z,10.52
2023-01-01T09:51:37.017Z,10.82
2023-01-01T09:54:33.317Z,10.65
2023-01-01T09:57:03.884Z,11.70
2023-01-01T09:59:30.479Z,10.57
2023-01-01T10:02:24.752Z,11.90
2023-01-01T10:05:11.206Z,10.93
2023-01-01T10:07:49.186Z,11.20
2023-01-01T10:10:37.262Z,11.05
2023-01-01T10:13:12.680Z,11.65
2023-01-01T10:16:06.801Z,11.48
2023-01-01T10:18:38.121Z,11.97
2023-01-01T10:21:10.685Z,11.90
2023-01-01T10:23:52.256Z,13.00
2023-01-01T10:26:22.527Z,11.20
2023-01-01T10:28:56.254Z,11.07
2023-01-01T10:31:39.467Z,11.98
2023-01-01T10:34:26.259Z,11.63
2023-01-01T10:36:55.759Z,10.15
2023-01-01T10:39:22.452Z,10.55
2023-01-01T10:41:49.099Z,11.80
2023-01-01T10:44:21.885Z,10.70
2023-01-01T10:46:54.753Z,10.60
2023-01-01T10:49:21.151Z,10.43
2023-01-01T10:51:52.743Z,10.10
2023-01-01T10:54:31.122Z,10.60
2023-01-01T10:56:58.105Z,9.32
2023-01-01T10:59:39.481Z,10.45
2023-01-01T11:02:27.274Z,9.85
2023-01-01T11:05:22.699Z,9.48
2023-01-01T11:07:49.872Z,8.82
2023-01-01T11:10:25.562Z,9.25
2023-01-01T11:13:09.392Z,9.07
2023-01-01T11:15:39.096Z,8.50
2023-01-01T11:18:10.665Z,8.93
2023-01-01T11:20:37.107Z,10.57
2023-01-01T11:23:30.146Z,10.18
2023-01-01T11:26:04.971Z,9.70
2023-01-01T11:28:34.889Z,9.48
2023-01-01T11:31:15.647Z,9.75
2023-01-01T11:33:50.626Z,8.82
2023-01-01T11:36:26.201Z,7.57
2023-01-01T11:39:23.379Z,8.30
2023-01-01T11:41:52.256Z,8.30
2023-01-01T11:44:44.510Z,7.30
2023-01-01T11:47:38.991Z,9.02
2023-01-01T11:50:14.685Z,8.05
2023-01-01T11:52:44.375Z,7.72
2023-01-01T11:55:13.834Z,8.30
2023-01-01T11:57:47.635Z,8.85
2023-01-01T12:00:16.574Z,9.15
2023-01-01T12:02:53.239Z,8.02
2023-01-01T12:05:27.080Z,8.02
2023-01-01T12:07:55.111Z,7.43
2023-01-01T12:10:26.148Z,7.72
2023-01-01T12:13:04.808Z,8.02
2023-01-01T12:15:57.825Z,8.15
2023-01-01T12:19:06.355Z,7.85
2023-01-01T12:21:35.562Z,7.43
2023-01-01T12:24:03.900Z,8.13
2023-01-01T12:26:42.715Z,7.93
2023-01-01T12:29:30.900Z,7.70
2023-01-01T12:32:06.367Z,8.13
2023-01-01T12:34:57.221Z,7.15
2023-01-01T12:37:40.596Z,7.95
2023-01-01T12:40:28.533Z,8.88
2023-01-01T12:43:16.220Z,7.38
2023-01-01T12:46:02.737Z,7.25
2023-01-01T12:49:06.567Z,6.97
2023-01-01T12:51:45.183Z,7.43
2023-01-01T12:54:38.652Z,7.20
2023-01-01T12:57:32.501Z,7.18
2023-01-01T13:00:02.676Z,7.50
2023-01-01T13:02:33.811Z,7.00
2023-01-01T13:05:07.503Z,7.55
2023-01-01T13:07:39.278Z,7.90
2023-01-01T13:10:20.245Z,8.25
2023-01-01T13:12:47.391Z,7.88
2023-01-01T13:15:53.976Z,7.35
2023-01-01T13:18:26.164Z,7.25
2023-01-01T13:21:05.802Z,7.63
2023-01-01T13:23:33.276Z,7.22
2023-01-01T13:26:18.219Z,7.75
2023-01-01T13:29:09.615Z,7.15
2023-01-01T13:31:39.417Z,7.50
2023-01-01T13:34:30.944Z,7.80
2023-01-01T13:37:19.188Z,7.47
2023-01-01T13:40:04.634Z,7.10
2023-01-01T13:42:51.713Z,8.82
2023-01-01T13:46:00.633Z,8.45
2023-01-01T13:48:35.567Z,7.47
2023-01-01T13:51:07.931Z,7.00
2023-01-01T13:53:50.463Z,7.97
2023-01-01T13:56:39.195Z,7.80
2023-01-01T13:59:20.567Z,8.10
2023-01-01T14:02:22.210Z,7.72
2023-01-01T14:04:57.610Z,7.32
2023-01-01T14:07:50.582Z,8.50
2023-01-01T14:10:36.619Z,7.65
2023-01-01T14:13:06.303Z,8.05
2023-01-01T14:15:52.334Z,9.77
2023-01-01T14:18:21.809Z,9.07
2023-01-01T14:20:51.963Z,9.27
2023-01-01T14:23:36.065Z,9.15
2023-01-01T14:26:11.979Z,9.40
2023-01-01T14:28:39.359Z,9.40
2023-01-01T14:31:12.015Z,10.25
2023-01-01T14:33:39.274Z,9.80
2023-01-01T14:36:26.379Z,9.35
2023-01-01T14:38:55.274Z,9.52
2023-01-01T14:41:24.558Z,10.10
2023-01-01T14:43:53.102Z,9.70
2023-01-01T14:46:22.339Z,10.93
2023-01-01T14:48:55.253Z,9.93
2023-01-01T14:51:25.344Z,9.48
2023-01-01T14:53:53.624Z,9.85
2023-01-01T14:56:26.840Z,10.57
2023-01-01T14:58:53.652Z,9.43
2023-01-01T15:01:25.441Z,9.75
2023-01-01T15:03:56.869Z,10.90
2023-01-01T15:06:23.416Z,11.73
2023-01-01T15:08:51.069Z,14.10
2023-01-01T15:11:19.341Z,14.02
2023-01-01T15:14:01.098Z,13.43
2023-01-01T15:16:33.304Z,13.38
2023-01-01T15:19:17.727Z,14.07
2023-01-01T15:21:44.482Z,16.73
2023-01-01T15:24:14.841Z,16.08
2023-01-01T15:26:45.006Z,14.77
2023-01-01T15:29:17.826Z,14.13
2023-01-01T15:31:53.710Z,14.65
2023-01-01T15:34:22.731Z,14.77
2023-01-01T15:36:50.085Z,17.13
2023-01-01T15:39:16.491Z,17.58
2023-01-01T15:41:53.730Z,17.13
2023-01-01T15:44:25.384Z,17.50
2023-01-01T15:46:52.613Z,18.25
2023-01-01T15:49:25.128Z,20.63
2023-01-01T15:51:56.287Z,22.40
2023-01-01T15:54:22.793Z,22.42
2023-01-01T15:56:49.845Z,22.90
2023-01-01T15:59:33.373Z,24.85
2023-01-01T16:02:13.417Z,24.88
2023-01-01T16:04:40.215Z,24.73
2023-01-01T16:07:16.078Z,25.25
2023-01-01T16:09:43.681Z,25.67
2023-01-01T16:12:10.039Z,30.02
2023-01-01T16:14:36.503Z,28.77
2023-01-01T16:17:03.019Z,30.38
2023-01-01T16:19:31.720Z,36.25
2023-01-01T16:21:58.466Z,42.80
2023-01-01T16:24:24.907Z,47.08
2023-01-01T16:26:51.449Z,49.85
2023-01-01T16:29:18.121Z,52.22
2023-01-01T16:31:47.358Z,53.17
2023-01-01T16:34:14.853Z,55.65
2023-01-01T16:36:42.847Z,57.47
2023-01-01T16:39:09.204Z,59.45
2023-01-01T16:41:35.769Z,73.32
2023-01-01T16:44:02.125Z,73.15
2023-01-01T16:46:28.950Z,94.88
2023-01-01T16:48:55.318Z,103.55
2023-01-01T16:51:28.887Z,103.68
2023-01-01T16:53:55.394Z,97.00
2023-01-01T16:56:21.771Z,91.72
2023-01-01T16:58:50.059Z,90.10
2023-01-01T17:01:19.350Z,98.93
2023-01-01T17:03:46.058Z,97.32
2023-01-01T17:06:12.778Z,112.50
2023-01-01T17:08:39.727Z,110.88
2023-01-01T17:11:15.074Z,113.63
2023-01-01T17:13:43.012Z,152.05
2023-01-01T17:16:10.742Z,161.80
2023-01-01T17:19:13.443Z,222.93
2023-01-01T17:21:24.180Z,231.55
2023-01-01T17:23:50.740Z,286.45
2023-01-01T17:26:23.205Z,322.70
2023-01-01T17:28:56.546Z,324.77
2023-01-01T17:31:26.337Z,325.20
2023-01-01T17:33:54.463Z,349.08
2023-01-01T17:36:20.850Z,379.60
2023-01-01T17:38:47.269Z,390.73
2023-01-01T17:41:15.943Z,411.80
2023-01-01T17:43:45.097Z,421.10
2023-01-01T17:46:13.992Z,414.38
2023-01-01T17:48:41.379Z,404.83
2023-01-01T17:51:08.426Z,418.05
2023-01-01T17:53:34.790Z,391.55
2023-01-01T17:56:01.182Z,391.70
2023-01-01T17:58:32.161Z,363.02
2023-01-01T18:01:10.396Z,314.77
2023-01-01T18:03:37.967Z,309.02
2023-01-01T18:06:04.815Z,354.92
2023-01-01T18:08:32.894Z,391.05
2023-01-01T18:10:59.714Z,384.42
2023-01-01T18:13:27.080Z,367.75
2023-01-01T18:15:53.842Z,357.80
2023-01-01T18:18:20.220Z,350.13
2023-01-01T18:20:46.625Z,376.42
2023-01-01T18:23:12.933Z,372.25
2023-01-01T18:25:39.301Z,380.25
2023-01-01T18:28:06.872Z,427.58
2023-01-01T18:30:33.251Z,420.02
2023-01-01T18:32:59.562Z,443.95
2023-01-01T18:35:25.958Z,397.13
2023-01-01T18:37:52.321Z,381.83
2023-01-01T18:40:18.781Z,385.27
2023-01-01T18:43:00.313Z,371.65
2023-01-01T18:45:26.751Z,330.85
2023-01-01T18:47:53.193Z,356.83
2023-01-01T18:50:27.562Z,370.65
2023-01-01T18:53:11.640Z,322.83
2023-01-01T18:55:38.383Z,258.63
2023-01-01T18:58:25.005Z,314.58
2023-01-01T19:00:55.580Z,291.42
2023-01-01T19:03:27.859Z,325.38
2023-01-01T19:05:55.495Z,332.50
2023-01-01T19:08:22.872Z,367.27
2023-01-01T19:10:50.441Z,355.83
2023-01-01T19:13:33.055Z,389.90
2023-01-01T19:16:11.664Z,300.10
2023-01-01T19:18:46.775Z,268.90
2023-01-01T19:21:13.378Z,261.85
2023-01-01T19:23:57.223Z,242.65
2023-01-01T19:26:26.106Z,195.63
2023-01-01T19:28:55.337Z,199.60
2023-01-01T19:31:22.707Z,197.43
2023-01-01T19:33:49.659Z,157.20
2023-01-01T19:36:16.221Z,189.18
2023-01-01T19:38:43.968Z,169.88
2023-01-01T19:41:11.229Z,146.50
2023-01-01T19:43:38.798Z,146.55
2023-01-01T19:46:05.345Z,138.60
2023-01-01T19:48:31.949Z,129.70
2023-01-01T19:50:58.886Z,117.72
2023-01-01T19:53:25.303Z,101.60
2023-01-01T19:55:52.395Z,106.90
2023-01-01T19:58:20.003Z,125.30
2023-01-01T20:00:47.980Z,131.20
2023-01-01T20:06:13.023Z,80.20
2023-01-01T20:08:39.687Z,111.75
2023-01-01T20:11:07.183Z,100.97
2023-01-01T20:13:33.620Z,87.22
2023-01-01T20:16:01.934Z,79.35
2023-01-01T20:18:28.803Z,68.28
2023-01-01T20:21:26.036Z,72.00
2023-01-01T20:23:53.355Z,55.15
2023-01-01T20:26:20.724Z,64.85
2023-01-01T20:29:05.753Z,70.30
2023-01-01T20:31:32.261Z,56.25
2023-01-01T20:33:58.908Z,55.65
2023-01-01T20:36:44.009Z,59.22
2023-01-01T20:39:10.663Z,47.78
2023-01-01T20:41:37.358Z,48.13
2023-01-01T20:44:03.810Z,46.35
2023-01-01T20:46:30.311Z,43.90
2023-01-01T20:48:59.361Z,48.53
2023-01-01T20:51:25.843Z,47.40
2023-01-01T20:53:55.656Z,46.22
2023-01-01T20:56:22.223Z,47.60
2023-01-01T20:58:54.518Z,47.80
2023-01-01T21:01:24.091Z,47.38
2023-01-01T21:03:50.563Z,54.05
2023-01-01T21:06:21.986Z,49.70
2023-01-01T21:08:50.960Z,46.42
2023-01-01T21:11:17.719Z,52.58
2023-01-01T21:13:45.092Z,60.60
2023-01-01T21:16:28.655Z,67.05
2023-01-01T21:18:56.021Z,52.30
2023-01-01T21:21:23.816Z,59.78
2023-01-01T21:23:53.758Z,62.88
2023-01-01T21:26:27.317Z,65.28
2023-01-01T21:28:54.674Z,60.33
2023-01-01T21:31:21.722Z,59.20
2023-01-01T21:33:48.269Z,55.33
2023-01-01T21:36:21.331Z,53.20
2023-01-01T21:38:48.946Z,53.00
2023-01-01T21:41:19.127Z,57.42
2023-01-01T21:43:48.171Z,50.28
2023-01-01T21:46:39.491Z,51.05
2023-01-01T21:49:17.944Z,46.05
2023-01-01T21:51:49.937Z,50.17
2023-01-01T21:54:36.428Z,45.70
2023-01-01T21:57:14.758Z,45.70
2023-01-01T21:59:43.358Z,47.53
2023-01-01T22:02:09.833Z,47.72
2023-01-01T22:04:45.556Z,48.03
2023-01-01T22:10:18.784Z,51.97
2023-01-01T22:12:45.649Z,47.17
2023-01-01T22:15:33.495Z,53.80
2023-01-01T22:18:11.925Z,50.90
2023-01-01T22:20:39.958Z,50.42
2023-01-01T22:23:23.085Z,50.58
2023-01-01T22:25:49.683Z,50.20
2023-01-01T22:28:21.520Z,51.40
2023-01-01T22:30:50.305Z,54.78
2023-01-01T22:33:36.774Z,55.03
2023-01-01T22:36:10.718Z,48.13
2023-01-01T22:38:37.090Z,47.95
2023-01-01T22:41:03.559Z,48.75
2023-01-01T22:43:36.091Z,50.80
2023-01-01T22:46:14.645Z,47.72
2023-01-01T22:48:41.044Z,54.85
2023-01-01T22:51:17.558Z,52.08
2023-01-01T22:53:44.177Z,50.72
2023-01-01T22:56:10.763Z,50.85
2023-01-01T22:58:37.120Z,54.90
2023-01-01T23:01:03.502Z,52.55
2023-01-01T23:03:29.863Z,55.65
2023-01-01T23:05:56.737Z,50.63
2023-01-01T23:08:24.954Z,51.33
2023-01-01T23:10:51.778Z,47.92
2023-01-01T23:13:36.766Z,47.22
2023-01-01T23:16:04.321Z,45.30
2023-01-01T23:18:36.131Z,43.15
2023-01-01T23:21:07.146Z,40.70
2023-01-01T23:23:33.811Z,38.20
2023-01-01T23:26:01.321Z,39.50
2023-01-01T23:28:30.036Z,38.25
2023-01-01T23:30:58.900Z,37.75
2023-01-01T23:33:25.521Z,38.60
2023-01-01T23:35:52.909Z,40.42
2023-01-01T23:38:19.936Z,34.88
2023-01-01T23:40:46.373Z,34.20
2023-01-01T23:43:12.795Z,33.72
2023-01-01T23:45:39.460Z,34.83
2023-01-01T23:48:06.240Z,33.35
2023-01-01T23:50:33.022Z,31.40
2023-01-01T23:52:59.700Z,30.70
2023-01-01T23:55:26.114Z,32.15
2023-01-01T23:57:52.510Z,34.30
